createdAt,value
2022-08-25T20:06:41.791Z,5.10
2022-08-25T20:07:41.776Z,5.10
2022-08-25T20:08:41.719Z,4.90
2022-08-25T20:09:41.720Z,4.50
2022-08-25T20:10:42.177Z,4.90
2022-08-25T20:11:41.702Z,4.60
2022-08-25T20:12:41.688Z,4.50
2022-08-25T20:13:41.671Z,4.70
2022-08-25T20:14:41.653Z,4.20
2022-08-25T20:15:41.731Z,4.60
2022-08-25T20:16:41.629Z,4.50
2022-08-25T20:17:41.793Z,4.80
2022-08-25T20:18:41.602Z,5.20
2022-08-25T20:19:41.678Z,4.50
2022-08-25T20:20:41.592Z,4.90
2022-08-25T20:21:41.554Z,5.20
2022-08-25T20:22:41.602Z,5.30
2022-08-25T20:23:41.567Z,5.00
2022-08-25T20:24:41.535Z,4.60
2022-08-25T20:25:41.557Z,4.70
2022-08-25T20:26:43.061Z,4.60
2022-08-25T20:27:41.493Z,4.80
2022-08-25T20:28:42.311Z,4.60
2022-08-25T20:29:41.468Z,4.90
2022-08-25T20:30:41.534Z,4.50
2022-08-25T20:31:41.454Z,4.20
2022-08-25T20:32:41.431Z,4.60
2022-08-25T20:33:41.398Z,4.30
2022-08-25T20:34:41.398Z,4.50
2022-08-25T20:35:41.600Z,4.30
2022-08-25T20:36:50.104Z,4.60
2022-08-25T20:37:42.351Z,4.90
2022-08-25T20:38:41.334Z,4.50
2022-08-25T20:39:41.344Z,5.10
2022-08-25T20:40:41.347Z,5.00
2022-08-25T20:41:41.302Z,4.90
2022-08-25T20:42:41.326Z,4.60
2022-08-25T20:43:41.260Z,4.20
2022-08-25T20:44:42.172Z,4.20
2022-08-25T20:45:41.300Z,4.60
2022-08-25T20:46:41.254Z,4.00
2022-08-25T20:47:41.225Z,4.70
2022-08-25T20:48:41.208Z,4.60
2022-08-25T20:49:41.193Z,4.60
2022-08-25T20:50:41.168Z,4.70
2022-08-25T20:51:41.155Z,4.30
2022-08-25T20:52:42.575Z,4.20
2022-08-25T20:53:41.129Z,5.40
2022-08-25T20:54:41.102Z,4.70
2022-08-25T20:55:42.281Z,4.90
2022-08-25T20:56:41.101Z,5.10
2022-08-25T20:57:41.064Z,5.30
2022-08-25T20:58:41.072Z,4.40
2022-08-25T20:59:41.036Z,4.50
2022-08-25T21:00:41.072Z,4.70
2022-08-25T21:01:41.042Z,5.00
2022-08-25T21:02:41.051Z,4.90
2022-08-25T21:03:41.000Z,4.90
2022-08-25T21:04:48.913Z,5.00
2022-08-25T21:05:41.968Z,4.70
2022-08-25T21:06:40.955Z,4.60
2022-08-25T21:07:40.926Z,4.90
2022-08-25T21:08:40.951Z,5.00
2022-08-25T21:09:41.920Z,4.20
2022-08-25T21:10:40.929Z,5.30
2022-08-25T21:11:40.870Z,5.00
2022-08-25T21:12:40.866Z,4.90
2022-08-25T21:13:40.844Z,4.90
2022-08-25T21:14:40.847Z,4.40
2022-08-25T21:15:40.819Z,4.70
2022-08-25T21:16:40.974Z,5.20
2022-08-25T21:17:40.796Z,4.70
2022-08-25T21:18:40.780Z,5.10
2022-08-25T21:19:42.054Z,5.10
2022-08-25T21:20:40.791Z,4.60
2022-08-25T21:21:40.747Z,5.60
2022-08-25T21:22:40.750Z,5.50
2022-08-25T21:23:40.711Z,5.60
2022-08-25T21:24:40.698Z,5.30
2022-08-25T21:25:40.694Z,5.30
2022-08-25T21:26:48.732Z,5.50
2022-08-25T21:27:41.664Z,5.40
2022-08-25T21:28:40.675Z,5.70
2022-08-25T21:29:44.535Z,6.00
2022-08-25T21:30:41.689Z,5.80
2022-08-25T21:31:40.613Z,5.80
2022-08-25T21:32:40.603Z,5.60
2022-08-25T21:33:41.576Z,6.20
2022-08-25T21:34:40.577Z,5.20
2022-08-25T21:35:40.589Z,5.60
2022-08-25T21:36:40.541Z,4.90
2022-08-25T21:37:40.527Z,5.50
2022-08-25T21:38:40.606Z,5.70
2022-08-25T21:39:40.509Z,5.80
2022-08-25T21:40:40.490Z,5.40
2022-08-25T21:41:40.521Z,5.50
2022-08-25T21:42:40.496Z,5.70
2022-08-25T21:43:40.471Z,5.50
2022-08-25T21:44:40.485Z,6.00
2022-08-25T21:45:43.247Z,5.20
2022-08-25T21:46:41.444Z,5.40
2022-08-25T21:47:40.763Z,5.50
2022-08-25T21:48:40.394Z,5.20
2022-08-25T21:49:40.360Z,5.80
2022-08-25T21:50:40.426Z,5.80
2022-08-25T21:51:40.662Z,6.00
2022-08-25T21:52:41.237Z,5.60
2022-08-25T21:53:40.318Z,6.40
2022-08-25T21:54:40.315Z,6.10
2022-08-25T21:55:41.895Z,5.80
2022-08-25T21:56:40.286Z,5.70
2022-08-25T21:57:40.257Z,6.10
2022-08-25T21:58:40.259Z,6.10
2022-08-25T21:59:33.015Z,5.60
2022-08-25T22:00:32.973Z,5.50
2022-08-25T22:01:33.021Z,5.60
2022-08-25T22:02:32.979Z,5.50
2022-08-25T22:03:33.011Z,6.20
2022-08-25T22:04:32.953Z,5.80
2022-08-25T22:05:32.921Z,5.80
2022-08-25T22:06:32.924Z,5.60
2022-08-25T22:07:34.437Z,5.30
2022-08-25T22:08:33.882Z,5.50
2022-08-25T22:09:32.865Z,5.60
2022-08-25T22:10:32.851Z,5.50
2022-08-25T22:11:36.057Z,5.50
2022-08-25T22:12:32.818Z,5.50
2022-08-25T22:13:32.803Z,5.80
2022-08-25T22:14:32.792Z,5.70
2022-08-25T22:15:32.775Z,5.70
2022-08-25T22:16:32.831Z,5.70
2022-08-25T22:17:32.764Z,5.90
2022-08-25T22:18:32.737Z,5.70
2022-08-25T22:19:33.153Z,5.60
2022-08-25T22:20:32.717Z,5.80
2022-08-25T22:21:32.704Z,5.70
2022-08-25T22:22:32.707Z,5.80
2022-08-25T22:23:32.669Z,4.70
2022-08-25T22:24:33.677Z,5.50
2022-08-25T22:25:32.641Z,5.80
2022-08-25T22:26:32.679Z,5.40
2022-08-25T22:27:32.617Z,5.80
2022-08-25T22:28:32.621Z,6.00
2022-08-25T22:29:32.644Z,5.70
2022-08-25T22:30:32.606Z,5.60
2022-08-25T22:31:32.551Z,5.90
2022-08-25T22:32:32.542Z,5.70
2022-08-25T22:33:32.534Z,6.00
2022-08-25T22:34:32.807Z,5.90
2022-08-25T22:35:32.527Z,6.20
2022-08-25T22:36:32.544Z,5.60
2022-08-25T22:37:32.477Z,5.90
2022-08-25T22:38:32.470Z,5.80
2022-08-25T22:39:32.487Z,6.00
2022-08-25T22:40:32.504Z,7.00
2022-08-25T22:41:32.415Z,6.20
2022-08-25T22:42:32.463Z,6.10
2022-08-25T22:43:32.424Z,6.10
2022-08-25T22:44:32.376Z,5.20
2022-08-25T22:45:32.468Z,5.70
2022-08-25T22:46:32.357Z,6.50
2022-08-25T22:47:32.334Z,6.20
2022-08-25T22:48:32.338Z,5.70
2022-08-25T22:49:32.315Z,5.90
2022-08-25T22:50:32.282Z,5.50
2022-08-25T22:51:32.360Z,6.40
2022-08-25T22:52:33.586Z,5.90
2022-08-25T22:53:32.270Z,6.00
2022-08-25T22:54:32.269Z,6.40
2022-08-25T22:55:32.243Z,6.10
2022-08-25T22:56:32.247Z,6.00
2022-08-25T22:57:32.272Z,6.10
2022-08-25T22:58:32.193Z,5.70
2022-08-25T22:59:32.182Z,6.20
2022-08-25T23:00:32.172Z,5.80
2022-08-25T23:01:32.153Z,5.80
2022-08-25T23:02:32.158Z,6.10
2022-08-25T23:03:32.178Z,6.00
2022-08-25T23:04:32.155Z,6.20
2022-08-25T23:05:32.131Z,6.00
2022-08-25T23:06:32.121Z,6.00
2022-08-25T23:07:32.073Z,6.50
2022-08-25T23:08:39.293Z,6.00
2022-08-25T23:09:33.087Z,6.10
2022-08-25T23:10:32.046Z,6.30
2022-08-25T23:11:32.046Z,6.40
2022-08-25T23:12:32.058Z,6.80
2022-08-25T23:13:33.897Z,6.00
2022-08-25T23:14:31.995Z,6.30
2022-08-25T23:15:31.980Z,6.00
2022-08-25T23:16:32.009Z,5.80
2022-08-25T23:17:31.951Z,6.20
2022-08-25T23:18:31.939Z,6.70
2022-08-25T23:19:31.943Z,6.10
2022-08-25T23:20:31.901Z,6.20
2022-08-25T23:21:38.222Z,6.70
2022-08-25T23:22:32.886Z,6.60
2022-08-25T23:23:31.862Z,6.60
2022-08-25T23:24:31.849Z,6.00
2022-08-25T23:25:31.836Z,6.70
2022-08-25T23:26:31.823Z,6.60
2022-08-25T23:27:31.820Z,6.30
2022-08-25T23:28:31.794Z,7.20
2022-08-25T23:29:31.788Z,5.90
2022-08-25T23:30:31.785Z,6.10
2022-08-25T23:31:31.778Z,6.30
2022-08-25T23:32:31.737Z,6.00
2022-08-25T23:33:31.720Z,6.50
2022-08-25T23:34:31.737Z,6.30
2022-08-25T23:35:31.703Z,6.60
2022-08-25T23:36:31.707Z,6.20
2022-08-25T23:37:31.681Z,6.40
2022-08-25T23:38:31.686Z,5.90
2022-08-25T23:39:31.660Z,5.40
2022-08-25T23:40:31.702Z,6.20
2022-08-25T23:41:31.610Z,6.60
2022-08-25T23:42:31.620Z,6.10
2022-08-25T23:43:31.589Z,6.10
2022-08-25T23:44:31.619Z,5.90
2022-08-25T23:45:31.650Z,6.30
2022-08-25T23:46:31.553Z,6.00
2022-08-25T23:47:31.554Z,5.80
2022-08-25T23:48:31.524Z,5.50
2022-08-25T23:49:31.503Z,6.20
2022-08-25T23:50:31.551Z,6.00
2022-08-25T23:51:31.479Z,6.30
2022-08-25T23:52:31.503Z,6.20
2022-08-25T23:53:31.454Z,5.80
2022-08-25T23:54:31.669Z,6.00
2022-08-25T23:55:33.621Z,6.50
2022-08-25T23:56:31.417Z,6.50
2022-08-25T23:57:31.423Z,6.40
2022-08-25T23:58:31.717Z,6.10
2022-08-25T23:59:31.368Z,7.00
